createdAt,value
2022-08-26T00:01:01.589Z,25.00
2022-08-26T00:03:28.678Z,25.00
2022-08-26T00:05:55.786Z,25.00
2022-08-26T00:08:23.521Z,25.20
2022-08-26T00:10:50.617Z,25.60
2022-08-26T00:13:19.496Z,25.70
2022-08-26T00:15:46.991Z,25.80
2022-08-26T00:18:21.782Z,25.80
2022-08-26T00:20:49.937Z,26.00
2022-08-26T00:23:17.711Z,26.00
2022-08-26T00:25:44.985Z,25.70
2022-08-26T00:28:12.218Z,25.50
2022-08-26T00:30:39.854Z,25.60
2022-08-26T00:33:08.157Z,25.70
2022-08-26T00:35:35.385Z,25.80
2022-08-26T00:38:03.435Z,25.90
2022-08-26T00:40:35.300Z,26.00
2022-08-26T00:43:02.838Z,26.00
2022-08-26T00:45:38.500Z,26.00
2022-08-26T00:48:05.642Z,25.90
2022-08-26T00:50:33.770Z,25.60
2022-08-26T00:53:01.503Z,25.20
2022-08-26T00:55:46.512Z,25.10
2022-08-26T00:58:15.825Z,24.90
2022-08-26T01:00:43.187Z,24.70
2022-08-26T01:03:12.803Z,24.70
2022-08-26T01:05:41.477Z,24.90
2022-08-26T01:08:08.749Z,25.00
2022-08-26T01:10:39.308Z,25.10
2022-08-26T01:13:20.086Z,25.20
2022-08-26T01:15:53.872Z,25.30
2022-08-26T01:18:21.427Z,25.30
2022-08-26T01:20:48.485Z,25.30
2022-08-26T01:23:15.602Z,25.50
2022-08-26T01:25:44.457Z,25.60
2022-08-26T01:28:16.500Z,25.60
2022-08-26T01:30:44.693Z,25.70
2022-08-26T01:33:12.739Z,25.70
2022-08-26T01:35:57.023Z,25.80
2022-08-26T01:38:49.285Z,25.80
2022-08-26T01:41:54.232Z,25.80
2022-08-26T01:45:26.196Z,25.90
2022-08-26T01:48:30.659Z,25.80
2022-08-26T01:51:14.634Z,25.60
2022-08-26T01:53:55.946Z,25.60
2022-08-26T01:56:52.135Z,25.80
2022-08-26T01:59:31.359Z,25.50
2022-08-26T02:02:20.569Z,25.30
2022-08-26T02:04:58.361Z,24.70
2022-08-26T02:07:29.828Z,24.00
2022-08-26T02:09:57.916Z,24.60
2022-08-26T02:12:32.087Z,24.90
2022-08-26T02:15:06.228Z,25.10
2022-08-26T02:17:34.680Z,25.30
2022-08-26T02:20:14.838Z,25.40
2022-08-26T02:22:45.077Z,25.50
2022-08-26T02:25:14.798Z,25.30
2022-08-26T02:27:44.265Z,25.20
2022-08-26T02:30:15.722Z,25.30
2022-08-26T02:32:44.379Z,25.00
2022-08-26T02:35:12.965Z,24.90
2022-08-26T02:37:41.898Z,24.80
2022-08-26T02:40:09.788Z,24.80
2022-08-26T02:42:37.607Z,24.70
2022-08-26T02:45:05.214Z,24.40
2022-08-26T02:47:34.261Z,24.20
2022-08-26T02:50:01.925Z,24.50
2022-08-26T02:52:29.033Z,24.70
2022-08-26T02:54:56.138Z,24.70
2022-08-26T02:57:23.263Z,24.90
2022-08-26T02:59:51.475Z,24.90
2022-08-26T03:02:19.007Z,24.90
2022-08-26T03:04:57.725Z,24.80
2022-08-26T03:07:29.717Z,24.60
2022-08-26T03:09:57.260Z,24.50
2022-08-26T03:12:25.595Z,24.40
2022-08-26T03:14:53.092Z,24.50
2022-08-26T03:17:20.991Z,24.30
2022-08-26T03:19:51.758Z,24.30
2022-08-26T03:22:21.412Z,24.00
2022-08-26T03:24:49.977Z,24.50
2022-08-26T03:27:17.121Z,24.60
2022-08-26T03:30:03.130Z,24.70
2022-08-26T03:32:30.315Z,24.70
2022-08-26T03:34:57.846Z,24.70
2022-08-26T03:37:25.385Z,24.70
2022-08-26T03:39:53.046Z,24.70
2022-08-26T03:42:22.078Z,24.70
2022-08-26T03:44:49.503Z,24.50
2022-08-26T03:47:17.115Z,24.80
2022-08-26T03:49:44.322Z,24.80
2022-08-26T03:52:12.339Z,24.90
2022-08-26T03:54:40.490Z,25.00
2022-08-26T03:57:10.632Z,25.10
2022-08-26T03:59:37.733Z,25.00
2022-08-26T04:02:11.480Z,25.10
2022-08-26T04:04:38.994Z,24.90
2022-08-26T04:07:06.106Z,24.90
2022-08-26T04:09:35.125Z,25.00
2022-08-26T04:12:03.713Z,25.20
2022-08-26T04:14:32.107Z,25.20
2022-08-26T04:16:59.413Z,25.10
2022-08-26T04:19:26.514Z,24.90
2022-08-26T04:21:53.786Z,24.80
2022-08-26T04:24:21.857Z,24.80
2022-08-26T04:26:48.996Z,24.70
2022-08-26T04:29:18.099Z,24.90
2022-08-26T04:31:46.035Z,24.90
2022-08-26T04:34:14.037Z,24.90
2022-08-26T04:36:41.982Z,24.90
2022-08-26T04:39:11.989Z,24.90
2022-08-26T04:41:39.371Z,24.70
2022-08-26T04:44:07.704Z,24.60
2022-08-26T04:46:35.185Z,24.60
2022-08-26T04:49:08.410Z,24.40
2022-08-26T04:51:36.004Z,24.50
2022-08-26T04:54:06.754Z,24.50
2022-08-26T04:56:37.927Z,24.40
2022-08-26T04:59:06.218Z,24.50
2022-08-26T05:01:34.896Z,24.30
2022-08-26T05:04:08.237Z,24.30
2022-08-26T05:06:37.153Z,24.50
2022-08-26T05:09:04.885Z,24.30
2022-08-26T05:11:32.213Z,24.20
2022-08-26T05:14:02.348Z,24.20
2022-08-26T05:16:30.375Z,24.30
2022-08-26T05:18:57.614Z,24.20
2022-08-26T05:21:26.134Z,24.20
2022-08-26T05:23:57.145Z,24.30
2022-08-26T05:26:25.085Z,24.00
2022-08-26T05:28:54.781Z,24.40
2022-08-26T05:31:23.936Z,24.60
2022-08-26T05:33:51.131Z,24.70
2022-08-26T05:36:19.874Z,24.80
2022-08-26T05:38:49.022Z,24.80
2022-08-26T05:41:20.566Z,24.90
2022-08-26T05:43:47.753Z,24.90
2022-08-26T05:46:16.125Z,25.00
2022-08-26T05:48:44.303Z,25.10
2022-08-26T05:51:11.750Z,25.20
2022-08-26T05:53:40.038Z,25.20
2022-08-26T05:56:11.391Z,25.30
2022-08-26T05:58:39.435Z,25.40
2022-08-26T06:01:12.111Z,25.80
2022-08-26T06:03:40.009Z,26.80
2022-08-26T06:06:09.769Z,27.80
2022-08-26T06:08:37.969Z,28.70
2022-08-26T06:11:07.204Z,29.10
2022-08-26T06:13:35.014Z,28.90
2022-08-26T06:16:03.898Z,28.60
2022-08-26T06:18:34.872Z,28.50
2022-08-26T06:21:22.870Z,29.20
2022-08-26T06:24:09.143Z,29.90
2022-08-26T06:26:36.687Z,30.60
2022-08-26T06:29:04.229Z,31.00
2022-08-26T06:31:35.268Z,30.80
2022-08-26T06:34:06.175Z,30.80
2022-08-26T06:36:35.838Z,30.20
2022-08-26T06:39:06.471Z,29.50
2022-08-26T06:41:34.427Z,29.60
2022-08-26T06:44:02.445Z,29.70
2022-08-26T06:46:36.809Z,29.30
2022-08-26T06:49:04.220Z,29.50
2022-08-26T06:51:33.145Z,30.20
2022-08-26T06:54:15.915Z,29.00
2022-08-26T06:56:43.245Z,28.20
2022-08-26T06:59:13.339Z,28.40
2022-08-26T07:02:28.606Z,28.80
2022-08-26T07:07:46.839Z,30.80
2022-08-26T07:10:16.565Z,30.40
2022-08-26T07:12:43.747Z,30.50
2022-08-26T07:15:16.579Z,30.90
2022-08-26T07:18:01.111Z,31.40
2022-08-26T07:20:50.205Z,32.50
2022-08-26T07:23:17.360Z,32.70
2022-08-26T07:25:44.462Z,33.70
2022-08-26T07:28:12.632Z,32.70
2022-08-26T07:30:40.831Z,32.60
2022-08-26T07:33:08.124Z,33.80
2022-08-26T07:35:35.518Z,32.80
2022-08-26T07:38:02.766Z,33.80
2022-08-26T07:40:30.600Z,34.80
2022-08-26T07:42:57.903Z,34.30
2022-08-26T07:45:28.531Z,33.50
2022-08-26T07:47:55.816Z,32.50
2022-08-26T07:50:34.160Z,32.10
2022-08-26T07:53:10.814Z,31.10
2022-08-26T07:55:38.124Z,31.80
2022-08-26T07:58:20.586Z,32.20
2022-08-26T08:01:07.455Z,33.40
2022-08-26T08:03:38.845Z,32.50
2022-08-26T08:06:06.983Z,33.70
2022-08-26T08:08:35.430Z,34.80
2022-08-26T08:11:02.569Z,33.30
2022-08-26T08:13:29.703Z,33.60
2022-08-26T08:15:56.807Z,33.30
2022-08-26T08:18:23.925Z,31.50
2022-08-26T08:20:59.145Z,32.40
2022-08-26T08:23:37.384Z,33.10
2022-08-26T08:26:11.004Z,33.20
2022-08-26T08:28:47.937Z,32.90
2022-08-26T08:31:54.391Z,31.60
2022-08-26T08:34:13.024Z,31.30
2022-08-26T08:36:40.142Z,30.30
2022-08-26T08:39:08.700Z,29.10
2022-08-26T08:41:36.345Z,29.20
2022-08-26T08:44:03.442Z,29.30
2022-08-26T08:46:30.628Z,29.90
2022-08-26T08:48:59.732Z,28.60
2022-08-26T08:51:29.718Z,28.50
2022-08-26T08:53:56.805Z,29.00
2022-08-26T08:56:44.011Z,29.00
2022-08-26T08:59:17.080Z,28.50
2022-08-26T09:02:02.301Z,29.30
2022-08-26T09:05:04.970Z,28.10
2022-08-26T09:07:43.447Z,28.00
2022-08-26T09:10:33.116Z,28.30
2022-08-26T09:13:03.533Z,27.50
2022-08-26T09:15:52.669Z,28.40
2022-08-26T09:18:39.207Z,28.90
2022-08-26T09:21:10.733Z,27.60
2022-08-26T09:23:40.264Z,27.60
2022-08-26T09:26:14.931Z,28.10
2022-08-26T09:28:42.787Z,27.30
2022-08-26T09:31:11.684Z,27.70
2022-08-26T09:33:40.105Z,28.20
2022-08-26T09:36:37.788Z,27.70
2022-08-26T09:39:12.902Z,27.00
2022-08-26T09:41:40.022Z,28.20
2022-08-26T09:44:14.775Z,27.70
2022-08-26T09:46:44.583Z,28.20
2022-08-26T09:49:35.834Z,27.90
2022-08-26T09:52:04.942Z,27.80
2022-08-26T09:54:33.485Z,27.60
2022-08-26T09:57:16.155Z,28.60
2022-08-26T09:59:43.474Z,28.50
2022-08-26T10:02:21.205Z,29.40
2022-08-26T10:04:51.993Z,29.10
2022-08-26T10:07:33.778Z,29.20
2022-08-26T10:10:04.262Z,29.00
2022-08-26T10:12:31.983Z,29.50
2022-08-26T10:15:00.262Z,29.30
2022-08-26T10:17:41.324Z,29.10
2022-08-26T10:20:23.394Z,28.90
2022-08-26T10:22:51.115Z,28.50
2022-08-26T10:25:20.918Z,27.70
2022-08-26T10:28:03.073Z,28.80
2022-08-26T10:30:32.048Z,28.70
2022-08-26T10:33:04.297Z,29.00
2022-08-26T10:35:31.440Z,28.80
2022-08-26T10:38:00.555Z,28.70
2022-08-26T10:40:36.956Z,29.10
2022-08-26T10:43:20.561Z,28.40
2022-08-26T10:45:50.544Z,29.20
2022-08-26T10:48:22.803Z,28.80
2022-08-26T10:50:50.329Z,28.10
2022-08-26T10:53:25.361Z,28.40
2022-08-26T10:56:18.785Z,28.00
2022-08-26T10:58:51.452Z,29.00
2022-08-26T11:01:43.471Z,28.60
2022-08-26T11:04:29.164Z,29.00
2022-08-26T11:07:15.050Z,29.10
2022-08-26T11:09:46.093Z,29.50
2022-08-26T11:12:39.362Z,30.40
2022-08-26T11:15:09.766Z,30.10
2022-08-26T11:17:46.314Z,30.30
2022-08-26T11:20:22.641Z,30.00
2022-08-26T11:22:51.409Z,30.80
2022-08-26T11:25:19.266Z,30.80
2022-08-26T11:27:52.546Z,31.50
2022-08-26T11:30:20.606Z,31.00
2022-08-26T11:32:49.442Z,30.30
2022-08-26T11:35:17.137Z,30.90
2022-08-26T11:37:47.932Z,31.20
2022-08-26T11:40:17.830Z,30.30
2022-08-26T11:42:50.673Z,30.90
2022-08-26T11:45:28.281Z,30.90
2022-08-26T11:47:55.484Z,30.60
2022-08-26T11:50:25.929Z,30.80
2022-08-26T11:52:56.349Z,31.00
2022-08-26T11:55:24.473Z,30.70
2022-08-26T11:57:52.892Z,31.00
2022-08-26T12:00:26.916Z,31.90
2022-08-26T12:02:55.566Z,31.00
2022-08-26T12:05:30.927Z,32.00
2022-08-26T12:07:59.737Z,31.80
2022-08-26T12:10:29.918Z,30.90
2022-08-26T12:12:58.615Z,31.60
2022-08-26T12:15:26.437Z,31.90
2022-08-26T12:17:56.766Z,32.60
2022-08-26T12:20:26.852Z,32.30
2022-08-26T12:22:53.983Z,33.10
2022-08-26T12:25:22.418Z,32.50
2022-08-26T12:27:53.571Z,33.10
2022-08-26T12:30:22.541Z,33.00
2022-08-26T12:32:57.486Z,32.50
2022-08-26T12:35:25.571Z,32.10
2022-08-26T12:37:53.370Z,32.50
2022-08-26T12:40:35.270Z,32.50
2022-08-26T12:43:04.919Z,32.20
2022-08-26T12:45:33.300Z,32.60
2022-08-26T12:48:06.004Z,31.40
2022-08-26T12:50:37.517Z,32.50
2022-08-26T12:59:27.333Z,31.60
2022-08-26T13:01:59.263Z,31.60
2022-08-26T13:04:50.983Z,32.60
2022-08-26T13:07:30.831Z,32.80
2022-08-26T13:10:06.134Z,32.80
2022-08-26T13:12:43.535Z,33.20
2022-08-26T13:21:37.671Z,34.20
2022-08-26T13:24:20.192Z,34.80
2022-08-26T13:26:52.224Z,35.00
2022-08-26T13:29:23.890Z,35.30
2022-08-26T13:31:52.629Z,34.30
2022-08-26T13:34:20.872Z,34.90
2022-08-26T13:36:49.504Z,34.80
2022-08-26T13:39:17.315Z,35.10
2022-08-26T13:41:44.574Z,35.00
2022-08-26T13:44:11.730Z,35.00
2022-08-26T13:46:39.021Z,35.10
2022-08-26T13:49:17.183Z,34.60
2022-08-26T13:52:01.953Z,34.60
2022-08-26T13:54:39.611Z,33.60
2022-08-26T13:57:17.272Z,32.90
2022-08-26T14:02:47.787Z,33.30
2022-08-26T14:05:32.769Z,33.90
2022-08-26T14:08:10.628Z,32.60
2022-08-26T14:11:13.409Z,34.10
2022-08-26T14:13:40.619Z,34.30
2022-08-26T14:16:08.766Z,34.40
2022-08-26T14:18:41.486Z,34.30
2022-08-26T14:21:09.194Z,33.50
2022-08-26T14:23:36.434Z,33.10
2022-08-26T14:26:08.041Z,33.50
2022-08-26T14:28:35.412Z,32.70
2022-08-26T14:31:02.723Z,32.10
2022-08-26T14:33:32.442Z,31.50
2022-08-26T14:36:19.914Z,32.20
2022-08-26T14:38:47.039Z,33.20
2022-08-26T14:41:14.135Z,33.10
2022-08-26T14:43:42.330Z,32.90
2022-08-26T14:46:09.623Z,33.00
2022-08-26T14:48:36.737Z,32.80
2022-08-26T14:51:05.263Z,33.00
2022-08-26T14:53:50.968Z,33.40
2022-08-26T14:56:18.067Z,33.70
2022-08-26T14:58:45.853Z,33.30
2022-08-26T15:01:13.055Z,32.90
2022-08-26T15:03:40.161Z,32.90
2022-08-26T15:06:08.394Z,32.60
2022-08-26T15:08:36.648Z,32.50
2022-08-26T15:11:03.915Z,31.80
2022-08-26T15:13:31.141Z,30.90
2022-08-26T15:15:58.289Z,30.90
2022-08-26T15:18:25.417Z,30.00
2022-08-26T15:20:52.750Z,28.00
2022-08-26T15:23:19.862Z,27.60
2022-08-26T15:25:48.471Z,27.00
2022-08-26T15:28:15.637Z,27.80
2022-08-26T15:30:43.091Z,28.00
2022-08-26T15:33:15.016Z,28.20
2022-08-26T15:35:43.104Z,28.40
2022-08-26T15:38:10.940Z,28.40
2022-08-26T15:40:38.304Z,28.60
2022-08-26T15:43:25.484Z,29.00
2022-08-26T15:45:54.119Z,28.70
2022-08-26T15:48:21.957Z,29.30
2022-08-26T15:50:50.203Z,29.30
2022-08-26T15:53:17.363Z,29.50
2022-08-26T15:55:44.664Z,30.40
2022-08-26T15:58:11.785Z,30.80
2022-08-26T16:00:40.059Z,30.30
2022-08-26T16:03:07.447Z,30.20
2022-08-26T16:05:38.340Z,30.00
2022-08-26T16:08:06.310Z,29.70
2022-08-26T16:10:34.154Z,29.70
2022-08-26T16:13:10.433Z,30.30
2022-08-26T16:15:42.469Z,30.30
2022-08-26T16:18:10.647Z,30.20
2022-08-26T16:20:38.226Z,29.60
2022-08-26T16:23:23.630Z,29.60
2022-08-26T16:26:01.624Z,29.70
2022-08-26T16:28:51.114Z,29.80
2022-08-26T16:31:26.524Z,29.50
2022-08-26T16:33:54.515Z,29.30
2022-08-26T16:36:33.358Z,29.40
2022-08-26T16:39:01.026Z,29.20
2022-08-26T16:41:47.468Z,29.10
2022-08-26T16:44:14.575Z,29.00
2022-08-26T16:46:41.782Z,29.60
2022-08-26T16:49:08.929Z,29.60
2022-08-26T16:51:37.819Z,29.50
2022-08-26T16:54:05.745Z,29.20
2022-08-26T16:56:34.691Z,29.60
2022-08-26T16:59:02.759Z,29.60
2022-08-26T17:01:29.989Z,29.30
2022-08-26T17:03:57.198Z,29.10
2022-08-26T17:06:24.371Z,29.50
2022-08-26T17:08:52.292Z,28.90
2022-08-26T17:11:19.669Z,28.90
2022-08-26T17:13:46.761Z,28.70
2022-08-26T17:16:14.003Z,28.70
2022-08-26T17:18:41.214Z,28.80
2022-08-26T17:21:09.366Z,28.80
2022-08-26T17:23:36.786Z,28.60
2022-08-26T17:26:03.988Z,28.90
2022-08-26T17:28:31.917Z,29.10
2022-08-26T17:30:59.249Z,29.30
2022-08-26T17:33:26.410Z,29.40
2022-08-26T17:35:53.792Z,29.50
2022-08-26T17:38:21.188Z,29.40
2022-08-26T17:40:48.450Z,29.50
2022-08-26T17:43:15.571Z,29.50
2022-08-26T17:45:43.267Z,29.30
2022-08-26T17:48:11.168Z,29.50
2022-08-26T17:50:39.293Z,29.50
2022-08-26T17:53:06.590Z,29.50
2022-08-26T17:55:33.806Z,29.60
2022-08-26T17:58:00.932Z,29.70
2022-08-26T18:00:31.064Z,29.80
2022-08-26T18:02:58.184Z,29.70
2022-08-26T18:05:25.307Z,29.30
2022-08-26T18:07:52.437Z,29.20
2022-08-26T18:10:20.168Z,28.70
2022-08-26T18:12:47.506Z,27.60
2022-08-26T18:15:15.324Z,27.20
2022-08-26T18:17:42.736Z,27.00
2022-08-26T18:20:11.422Z,26.70
2022-08-26T18:22:38.551Z,26.70
2022-08-26T18:25:06.252Z,26.80
2022-08-26T18:27:35.502Z,26.20
2022-08-26T18:30:03.864Z,24.60
2022-08-26T18:32:30.982Z,22.90
2022-08-26T18:34:58.089Z,22.60
2022-08-26T18:37:27.975Z,22.20
2022-08-26T18:39:59.331Z,22.80
2022-08-26T18:42:26.610Z,22.50
2022-08-26T18:44:53.702Z,21.90
2022-08-26T18:47:20.858Z,22.50
2022-08-26T18:49:48.550Z,22.10
2022-08-26T18:52:15.651Z,22.80
2022-08-26T18:54:42.991Z,22.70
2022-08-26T18:57:10.378Z,22.60
2022-08-26T18:59:37.613Z,22.30
2022-08-26T19:02:05.079Z,22.60
2022-08-26T19:04:32.225Z,22.30
2022-08-26T19:06:59.446Z,22.20
2022-08-26T19:09:26.598Z,22.30
2022-08-26T19:14:28.447Z,23.10
2022-08-26T19:16:55.733Z,23.60
2022-08-26T19:19:26.217Z,23.60
2022-08-26T19:21:53.370Z,23.00
2022-08-26T19:24:21.025Z,23.20
2022-08-26T19:26:58.980Z,23.10
2022-08-26T19:29:27.862Z,22.80
2022-08-26T19:31:54.979Z,23.00
2022-08-26T19:34:30.378Z,23.40
2022-08-26T19:37:14.178Z,23.50
2022-08-26T19:42:31.774Z,24.30
2022-08-26T19:45:07.985Z,23.70
2022-08-26T19:47:47.260Z,23.80
2022-08-26T19:50:15.061Z,22.60
2022-08-26T19:52:42.438Z,21.40
2022-08-26T19:55:10.235Z,21.10
2022-08-26T19:57:38.373Z,21.20
2022-08-26T20:00:10.828Z,20.60
2022-08-26T20:02:38.188Z,20.50
2022-08-26T20:05:05.934Z,21.20
2022-08-26T20:07:33.208Z,21.50
2022-08-26T20:10:00.429Z,21.10
2022-08-26T20:12:27.807Z,22.10
2022-08-26T20:14:55.054Z,21.90
2022-08-26T20:17:22.224Z,21.40
2022-08-26T20:20:26.882Z,21.00
2022-08-26T20:22:55.504Z,22.40
2022-08-26T20:25:22.680Z,22.40
2022-08-26T20:27:49.811Z,22.40
2022-08-26T20:30:17.109Z,22.50
2022-08-26T20:32:44.235Z,22.70
2022-08-26T20:35:12.434Z,22.70
2022-08-26T20:37:40.011Z,22.80
2022-08-26T20:40:09.035Z,23.00
2022-08-26T20:42:36.289Z,22.70
2022-08-26T20:45:04.287Z,23.00
2022-08-26T20:47:31.583Z,22.60
2022-08-26T20:49:58.723Z,23.00
2022-08-26T20:52:25.875Z,23.20
2022-08-26T20:54:52.967Z,23.10
2022-08-26T20:57:22.176Z,23.40
2022-08-26T20:59:49.261Z,23.00
2022-08-26T21:02:16.365Z,23.00
2022-08-26T21:04:43.703Z,22.90
2022-08-26T21:07:10.859Z,22.90
2022-08-26T21:09:37.958Z,23.00
2022-08-26T21:12:05.530Z,23.00
2022-08-26T21:14:32.645Z,23.20
2022-08-26T21:16:59.829Z,23.30
2022-08-26T21:19:26.959Z,23.50
2022-08-26T21:21:54.101Z,23.60
2022-08-26T21:24:21.233Z,23.30
2022-08-26T21:26:48.412Z,23.10
2022-08-26T21:29:15.543Z,22.90
2022-08-26T21:31:46.399Z,23.10
2022-08-26T21:34:14.784Z,23.10
2022-08-26T21:36:41.902Z,23.00
2022-08-26T21:39:11.817Z,23.10
2022-08-26T21:41:39.933Z,23.20
2022-08-26T21:44:07.329Z,23.00
2022-08-26T21:46:37.099Z,23.20
2022-08-26T21:49:05.817Z,23.40
2022-08-26T21:51:34.105Z,23.40
2022-08-26T21:54:01.554Z,23.30
2022-08-26T21:56:29.446Z,23.70
2022-08-26T21:58:56.703Z,23.40
2022-08-26T22:01:24.559Z,23.60
2022-08-26T22:03:52.562Z,23.70
2022-08-26T22:06:23.802Z,23.30
2022-08-26T22:08:51.230Z,23.40
2022-08-26T22:11:18.990Z,23.30
2022-08-26T22:13:46.668Z,23.50
2022-08-26T22:16:14.171Z,23.40
2022-08-26T22:18:43.728Z,23.40
2022-08-26T22:21:12.588Z,23.70
2022-08-26T22:23:39.534Z,23.50
2022-08-26T22:26:07.529Z,23.30
2022-08-26T22:28:34.840Z,23.10
2022-08-26T22:31:01.911Z,23.30
2022-08-26T22:33:28.959Z,23.40
2022-08-26T22:35:55.901Z,23.50
2022-08-26T22:38:23.780Z,23.40
2022-08-26T22:40:56.035Z,23.40
2022-08-26T22:43:27.568Z,23.50
2022-08-26T22:45:55.340Z,23.70
2022-08-26T22:48:23.702Z,23.80
2022-08-26T22:50:51.182Z,23.90
2022-08-26T22:53:18.396Z,23.70
2022-08-26T22:55:45.582Z,23.70
2022-08-26T22:58:14.480Z,23.60
2022-08-26T23:00:42.840Z,23.60
2022-08-26T23:03:11.294Z,23.80
2022-08-26T23:05:39.265Z,23.80
2022-08-26T23:08:07.059Z,24.00
2022-08-26T23:10:33.810Z,24.00
2022-08-26T23:13:01.719Z,24.00
2022-08-26T23:15:28.416Z,24.10
2022-08-26T23:17:58.337Z,24.30
2022-08-26T23:20:27.191Z,24.20
2022-08-26T23:22:54.561Z,24.00
2022-08-26T23:25:21.814Z,23.90
2022-08-26T23:27:48.887Z,23.90
2022-08-26T23:30:19.202Z,23.90
2022-08-26T23:32:46.451Z,24.20
2022-08-26T23:35:14.321Z,24.20
2022-08-26T23:37:44.043Z,24.20
2022-08-26T23:40:17.481Z,23.90
2022-08-26T23:42:44.312Z,24.10
2022-08-26T23:45:12.910Z,24.00
2022-08-26T23:47:39.740Z,24.20
2022-08-26T23:50:07.036Z,24.20
2022-08-26T23:52:52.514Z,24.00
2022-08-26T23:55:19.266Z,23.90
2022-08-26T23:57:45.975Z,23.90
